sensor_id;sensor_type;location;lat;lon;timestamp;P1;durP1;ratioP1;P2;durP2;ratioP2
22916;SDS011;11624;53.250;7.456;2024-02-14T00:01:29;15.48;;;4.82;;
22916;SDS011;11624;53.250;7.456;2024-02-14T00:03:59;13.45;;;4.53;;
22916;SDS011;11624;53.250;7.456;2024-02-14T00:06:27;14.48;;;4.43;;
22916;SDS011;11624;53.250;7.456;2024-02-14T00:08:56;12.05;;;4.22;;
22916;SDS011;11624;53.250;7.456;2024-02-14T00:11:24;13.43;;;5.05;;
22916;SDS011;11624;53.250;7.456;2024-02-14T00:13:53;12.02;;;4.53;;
22916;SDS011;11624;53.250;7.456;2024-02-14T00:16:22;14.27;;;4.80;;
22916;SDS011;11624;53.250;7.456;2024-02-14T00:18:51;13.02;;;4.70;;
22916;SDS011;11624;53.250;7.456;2024-02-14T00:21:21;13.65;;;4.55;;
22916;SDS011;11624;53.250;7.456;2024-02-14T00:23:50;17.92;;;5.72;;
22916;SDS011;11624;53.250;7.456;2024-02-14T00:26:18;14.00;;;5.30;;
22916;SDS011;11624;53.250;7.456;2024-02-14T00:28:47;15.55;;;5.22;;
22916;SDS011;11624;53.250;7.456;2024-02-14T00:31:16;12.48;;;4.70;;
22916;SDS011;11624;53.250;7.456;2024-02-14T00:33:44;13.88;;;5.40;;
22916;SDS011;11624;53.250;7.456;2024-02-14T00:36:13;13.10;;;4.90;;
22916;SDS011;11624;53.250;7.456;2024-02-14T00:38:43;12.98;;;5.03;;
22916;SDS011;11624;53.250;7.456;2024-02-14T00:41:11;15.63;;;5.30;;
22916;SDS011;11624;53.250;7.456;2024-02-14T00:43:40;15.40;;;5.50;;
22916;SDS011;11624;53.250;7.456;2024-02-14T00:46:08;15.60;;;5.70;;
22916;SDS011;11624;53.250;7.456;2024-02-14T00:48:37;14.93;;;5.70;;
22916;SDS011;11624;53.250;7.456;2024-02-14T00:51:06;13.70;;;5.85;;
22916;SDS011;11624;53.250;7.456;2024-02-14T00:53:34;16.25;;;6.45;;
22916;SDS011;11624;53.250;7.456;2024-02-14T00:56:04;18.42;;;6.50;;
22916;SDS011;11624;53.250;7.456;2024-02-14T00:58:33;15.85;;;6.35;;
22916;SDS011;11624;53.250;7.456;2024-02-14T01:01:02;16.08;;;6.35;;
22916;SDS011;11624;53.250;7.456;2024-02-14T01:03:30;15.93;;;6.10;;
22916;SDS011;11624;53.250;7.456;2024-02-14T01:05:59;15.40;;;6.32;;
22916;SDS011;11624;53.250;7.456;2024-02-14T01:08:27;15.73;;;6.85;;
22916;SDS011;11624;53.250;7.456;2024-02-14T01:10:56;18.58;;;7.68;;
22916;SDS011;11624;53.250;7.456;2024-02-14T01:13:26;17.77;;;7.10;;
22916;SDS011;11624;53.250;7.456;2024-02-14T01:15:54;16.58;;;6.53;;
22916;SDS011;11624;53.250;7.456;2024-02-14T01:18:23;17.88;;;8.02;;
22916;SDS011;11624;53.250;7.456;2024-02-14T01:20:52;16.13;;;7.88;;
22916;SDS011;11624;53.250;7.456;2024-02-14T01:23:21;22.25;;;8.27;;
22916;SDS011;11624;53.250;7.456;2024-02-14T01:25:49;18.55;;;8.52;;
22916;SDS011;11624;53.250;7.456;2024-02-14T01:28:18;21.60;;;8.63;;
22916;SDS011;11624;53.250;7.456;2024-02-14T01:30:48;18.42;;;8.90;;
22916;SDS011;11624;53.250;7.456;2024-02-14T01:33:17;20.17;;;8.73;;
22916;SDS011;11624;53.250;7.456;2024-02-14T01:35:45;18.67;;;8.57;;
22916;SDS011;11624;53.250;7.456;2024-02-14T01:38:14;22.60;;;9.50;;
22916;SDS011;11624;53.250;7.456;2024-02-14T01:40:42;21.17;;;10.00;;
22916;SDS011;11624;53.250;7.456;2024-02-14T01:43:13;20.42;;;9.68;;
22916;SDS011;11624;53.250;7.456;2024-02-14T01:45:42;19.40;;;9.50;;
22916;SDS011;11624;53.250;7.456;2024-02-14T01:48:12;19.63;;;9.90;;
22916;SDS011;11624;53.250;7.456;2024-02-14T01:50:45;21.33;;;10.48;;
22916;SDS011;11624;53.250;7.456;2024-02-14T01:53:14;21.50;;;10.52;;
22916;SDS011;11624;53.250;7.456;2024-02-14T01:55:43;20.00;;;9.98;;
22916;SDS011;11624;53.250;7.456;2024-02-14T01:58:11;21.33;;;10.73;;
22916;SDS011;11624;53.250;7.456;2024-02-14T02:00:40;21.27;;;10.80;;
22916;SDS011;11624;53.250;7.456;2024-02-14T02:03:14;20.23;;;9.57;;
22916;SDS011;11624;53.250;7.456;2024-02-14T02:05:42;22.02;;;11.00;;
22916;SDS011;11624;53.250;7.456;2024-02-14T02:08:11;22.67;;;11.30;;
22916;SDS011;11624;53.250;7.456;2024-02-14T02:10:40;22.23;;;11.38;;
22916;SDS011;11624;53.250;7.456;2024-02-14T02:13:09;23.55;;;11.63;;
22916;SDS011;11624;53.250;7.456;2024-02-14T02:15:37;23.70;;;11.27;;
22916;SDS011;11624;53.250;7.456;2024-02-14T02:18:06;22.65;;;11.70;;
22916;SDS011;11624;53.250;7.456;2024-02-14T02:20:36;21.58;;;10.77;;
22916;SDS011;11624;53.250;7.456;2024-02-14T02:23:06;21.23;;;10.65;;
22916;SDS011;11624;53.250;7.456;2024-02-14T02:25:36;20.67;;;11.15;;
22916;SDS011;11624;53.250;7.456;2024-02-14T02:28:04;23.08;;;11.15;;
22916;SDS011;11624;53.250;7.456;2024-02-14T02:30:35;0.55;;;0.55;;
22916;SDS011;11624;53.250;7.456;2024-02-14T02:33:04;1.10;;;0.95;;
22916;SDS011;11624;53.250;7.456;2024-02-14T02:35:34;0.82;;;0.65;;
22916;SDS011;11624;53.250;7.456;2024-02-14T02:38:03;1.08;;;0.80;;
22916;SDS011;11624;53.250;7.456;2024-02-14T02:40:33;0.65;;;0.65;;
22916;SDS011;11624;53.250;7.456;2024-02-14T02:43:01;1.08;;;0.57;;
22916;SDS011;11624;53.250;7.456;2024-02-14T02:45:29;2.00;;;1.27;;
22916;SDS011;11624;53.250;7.456;2024-02-14T02:47:58;1.85;;;1.20;;
22916;SDS011;11624;53.250;7.456;2024-02-14T02:50:28;2.42;;;0.98;;
22916;SDS011;11624;53.250;7.456;2024-02-14T02:52:56;0.38;;;0.38;;
22916;SDS011;11624;53.250;7.456;2024-02-14T02:55:25;4.57;;;1.95;;
22916;SDS011;11624;53.250;7.456;2024-02-14T02:57:55;3.78;;;1.70;;
22916;SDS011;11624;53.250;7.456;2024-02-14T03:00:25;1.65;;;0.73;;
22916;SDS011;11624;53.250;7.456;2024-02-14T03:02:54;0.70;;;0.70;;
22916;SDS011;11624;53.250;7.456;2024-02-14T03:05:22;1.30;;;0.90;;
22916;SDS011;11624;53.250;7.456;2024-02-14T03:07:51;0.95;;;0.43;;
22916;SDS011;11624;53.250;7.456;2024-02-14T03:10:19;0.38;;;0.38;;
22916;SDS011;11624;53.250;7.456;2024-02-14T03:12:48;1.45;;;0.85;;
22916;SDS011;11624;53.250;7.456;2024-02-14T03:15:18;0.75;;;0.50;;
22916;SDS011;11624;53.250;7.456;2024-02-14T03:17:47;1.45;;;0.95;;
22916;SDS011;11624;53.250;7.456;2024-02-14T03:20:15;0.80;;;0.35;;
22916;SDS011;11624;53.250;7.456;2024-02-14T03:22:46;1.80;;;0.90;;
22916;SDS011;11624;53.250;7.456;2024-02-14T03:25:16;2.80;;;0.95;;
22916;SDS011;11624;53.250;7.456;2024-02-14T03:27:45;0.80;;;0.68;;
22916;SDS011;11624;53.250;7.456;2024-02-14T03:30:19;0.32;;;0.25;;
22916;SDS011;11624;53.250;7.456;2024-02-14T03:32:49;0.20;;;0.20;;
22916;SDS011;11624;53.250;7.456;2024-02-14T03:35:19;0.35;;;0.35;;
22916;SDS011;11624;53.250;7.456;2024-02-14T03:37:48;2.10;;;1.30;;
22916;SDS011;11624;53.250;7.456;2024-02-14T03:40:19;0.43;;;0.30;;
22916;SDS011;11624;53.250;7.456;2024-02-14T03:42:48;0.70;;;0.50;;
22916;SDS011;11624;53.250;7.456;2024-02-14T03:45:20;0.20;;;0.20;;
22916;SDS011;11624;53.250;7.456;2024-02-14T03:47:48;1.30;;;0.82;;
22916;SDS011;11624;53.250;7.456;2024-02-14T03:50:17;1.42;;;0.55;;
22916;SDS011;11624;53.250;7.456;2024-02-14T03:52:45;0.30;;;0.30;;
22916;SDS011;11624;53.250;7.456;2024-02-14T03:55:14;0.80;;;0.43;;
22916;SDS011;11624;53.250;7.456;2024-02-14T03:57:45;0.25;;;0.22;;
22916;SDS011;11624;53.250;7.456;2024-02-14T04:00:14;1.27;;;0.30;;
22916;SDS011;11624;53.250;7.456;2024-02-14T04:02:45;0.52;;;0.52;;
22916;SDS011;11624;53.250;7.456;2024-02-14T04:05:16;0.90;;;0.50;;
22916;SDS011;11624;53.250;7.456;2024-02-14T04:07:44;0.30;;;0.30;;
22916;SDS011;11624;53.250;7.456;2024-02-14T04:10:16;0.40;;;0.40;;
22916;SDS011;11624;53.250;7.456;2024-02-14T04:12:44;0.75;;;0.68;;
22916;SDS011;11624;53.250;7.456;2024-02-14T04:15:13;0.68;;;0.40;;
22916;SDS011;11624;53.250;7.456;2024-02-14T04:17:41;0.65;;;0.35;;
22916;SDS011;11624;53.250;7.456;2024-02-14T04:20:12;0.40;;;0.40;;
22916;SDS011;11624;53.250;7.456;2024-02-14T04:22:40;0.52;;;0.32;;
22916;SDS011;11624;53.250;7.456;2024-02-14T04:25:10;0.70;;;0.43;;
22916;SDS011;11624;53.250;7.456;2024-02-14T04:27:39;0.10;;;0.10;;
22916;SDS011;11624;53.250;7.456;2024-02-14T04:30:07;0.75;;;0.63;;
22916;SDS011;11624;53.250;7.456;2024-02-14T04:32:36;0.20;;;0.20;;
22916;SDS011;11624;53.250;7.456;2024-02-14T04:35:06;0.05;;;0.05;;
22916;SDS011;11624;53.250;7.456;2024-02-14T04:37:36;1.95;;;0.65;;
22916;SDS011;11624;53.250;7.456;2024-02-14T04:40:06;0.10;;;0.10;;
22916;SDS011;11624;53.250;7.456;2024-02-14T04:42:36;0.50;;;0.35;;
22916;SDS011;11624;53.250;7.456;2024-02-14T04:45:05;0.13;;;0.13;;
22916;SDS011;11624;53.250;7.456;2024-02-14T04:47:35;0.28;;;0.28;;
22916;SDS011;11624;53.250;7.456;2024-02-14T04:50:04;0.10;;;0.10;;
22916;SDS011;11624;53.250;7.456;2024-02-14T04:52:33;0.50;;;0.50;;
22916;SDS011;11624;53.250;7.456;2024-02-14T04:55:03;0.40;;;0.40;;
22916;SDS011;11624;53.250;7.456;2024-02-14T04:57:32;0.43;;;0.40;;
22916;SDS011;11624;53.250;7.456;2024-02-14T05:00:02;1.17;;;0.88;;
22916;SDS011;11624;53.250;7.456;2024-02-14T05:02:32;2.63;;;0.43;;
22916;SDS011;11624;53.250;7.456;2024-02-14T05:05:00;0.43;;;0.40;;
22916;SDS011;11624;53.250;7.456;2024-02-14T05:07:29;0.52;;;0.52;;
22916;SDS011;11624;53.250;7.456;2024-02-14T05:09:58;0.43;;;0.38;;
22916;SDS011;11624;53.250;7.456;2024-02-14T05:12:28;0.30;;;0.30;;
22916;SDS011;11624;53.250;7.456;2024-02-14T05:14:56;0.47;;;0.28;;
22916;SDS011;11624;53.250;7.456;2024-02-14T05:17:25;0.55;;;0.30;;
22916;SDS011;11624;53.250;7.456;2024-02-14T05:19:54;0.75;;;0.47;;
22916;SDS011;11624;53.250;7.456;2024-02-14T05:22:23;0.30;;;0.30;;
22916;SDS011;11624;53.250;7.456;2024-02-14T05:24:51;0.47;;;0.30;;
22916;SDS011;11624;53.250;7.456;2024-02-14T05:27:20;1.75;;;0.95;;
22916;SDS011;11624;53.250;7.456;2024-02-14T05:29:50;0.63;;;0.20;;
22916;SDS011;11624;53.250;7.456;2024-02-14T05:32:18;0.20;;;0.20;;
22916;SDS011;11624;53.250;7.456;2024-02-14T05:34:47;0.10;;;0.10;;
22916;SDS011;11624;53.250;7.456;2024-02-14T05:37:15;0.85;;;0.75;;
22916;SDS011;11624;53.250;7.456;2024-02-14T05:39:44;0.85;;;0.43;;
22916;SDS011;11624;53.250;7.456;2024-02-14T05:42:12;0.10;;;0.10;;
22916;SDS011;11624;53.250;7.456;2024-02-14T05:44:42;0.10;;;0.10;;
22916;SDS011;11624;53.250;7.456;2024-02-14T05:47:12;0.30;;;0.30;;
22916;SDS011;11624;53.250;7.456;2024-02-14T05:49:41;1.83;;;0.73;;
22916;SDS011;11624;53.250;7.456;2024-02-14T05:52:10;0.40;;;0.30;;
22916;SDS011;11624;53.250;7.456;2024-02-14T05:54:38;0.13;;;0.13;;
22916;SDS011;11624;53.250;7.456;2024-02-14T05:57:06;0.35;;;0.22;;
22916;SDS011;11624;53.250;7.456;2024-02-14T05:59:35;0.85;;;0.30;;
22916;SDS011;11624;53.250;7.456;2024-02-14T06:02:04;0.55;;;0.35;;
22916;SDS011;11624;53.250;7.456;2024-02-14T06:04:36;0.63;;;0.22;;
22916;SDS011;11624;53.250;7.456;2024-02-14T06:07:04;1.20;;;0.73;;
22916;SDS011;11624;53.250;7.456;2024-02-14T06:09:35;0.57;;;0.35;;
22916;SDS011;11624;53.250;7.456;2024-02-14T06:12:03;0.20;;;0.20;;
22916;SDS011;11624;53.250;7.456;2024-02-14T06:14:33;0.47;;;0.38;;
22916;SDS011;11624;53.250;7.456;2024-02-14T06:17:01;0.00;;;0.00;;
22916;SDS011;11624;53.250;7.456;2024-02-14T06:19:30;1.80;;;0.85;;
22916;SDS011;11624;53.250;7.456;2024-02-14T06:22:03;0.13;;;0.13;;
22916;SDS011;11624;53.250;7.456;2024-02-14T06:24:31;0.10;;;0.10;;
22916;SDS011;11624;53.250;7.456;2024-02-14T06:27:00;0.00;;;0.00;;
22916;SDS011;11624;53.250;7.456;2024-02-14T06:29:29;0.70;;;0.30;;
22916;SDS011;11624;53.250;7.456;2024-02-14T06:31:57;0.10;;;0.10;;
22916;SDS011;11624;53.250;7.456;2024-02-14T06:34:25;0.00;;;0.00;;
22916;SDS011;11624;53.250;7.456;2024-02-14T06:36:55;0.25;;;0.25;;
22916;SDS011;11624;53.250;7.456;2024-02-14T06:39:25;0.20;;;0.20;;
22916;SDS011;11624;53.250;7.456;2024-02-14T06:41:53;0.30;;;0.30;;
22916;SDS011;11624;53.250;7.456;2024-02-14T06:44:22;1.00;;;0.45;;
22916;SDS011;11624;53.250;7.456;2024-02-14T06:46:50;0.10;;;0.10;;
22916;SDS011;11624;53.250;7.456;2024-02-14T06:49:19;0.65;;;0.22;;
22916;SDS011;11624;53.250;7.456;2024-02-14T06:51:47;0.20;;;0.20;;
22916;SDS011;11624;53.250;7.456;2024-02-14T06:54:16;0.38;;;0.38;;
22916;SDS011;11624;53.250;7.456;2024-02-14T06:56:47;0.10;;;0.10;;
22916;SDS011;11624;53.250;7.456;2024-02-14T06:59:16;0.30;;;0.20;;
22916;SDS011;11624;53.250;7.456;2024-02-14T07:01:44;0.32;;;0.20;;
22916;SDS011;11624;53.250;7.456;2024-02-14T07:04:12;1.60;;;0.50;;
22916;SDS011;11624;53.250;7.456;2024-02-14T07:06:41;1.88;;;0.55;;
22916;SDS011;11624;53.250;7.456;2024-02-14T07:09:09;0.43;;;0.40;;
22916;SDS011;11624;53.250;7.456;2024-02-14T07:11:39;0.40;;;0.40;;
22916;SDS011;11624;53.250;7.456;2024-02-14T07:14:09;0.30;;;0.30;;
22916;SDS011;11624;53.250;7.456;2024-02-14T07:16:37;0.50;;;0.47;;
22916;SDS011;11624;53.250;7.456;2024-02-14T07:19:06;0.20;;;0.20;;
22916;SDS011;11624;53.250;7.456;2024-02-14T07:21:34;0.00;;;0.00;;
22916;SDS011;11624;53.250;7.456;2024-02-14T07:24:04;0.20;;;0.20;;
22916;SDS011;11624;53.250;7.456;2024-02-14T07:26:33;0.30;;;0.30;;
22916;SDS011;11624;53.250;7.456;2024-02-14T07:29:02;0.25;;;0.25;;
22916;SDS011;11624;53.250;7.456;2024-02-14T07:31:32;0.20;;;0.20;;
22916;SDS011;11624;53.250;7.456;2024-02-14T07:34:01;0.65;;;0.40;;
22916;SDS011;11624;53.250;7.456;2024-02-14T07:36:35;0.73;;;0.32;;
22916;SDS011;11624;53.250;7.456;2024-02-14T07:39:03;0.40;;;0.32;;
22916;SDS011;11624;53.250;7.456;2024-02-14T07:41:32;0.20;;;0.13;;
22916;SDS011;11624;53.250;7.456;2024-02-14T07:44:00;0.25;;;0.25;;
22916;SDS011;11624;53.250;7.456;2024-02-14T07:46:29;0.40;;;0.40;;
22916;SDS011;11624;53.250;7.456;2024-02-14T07:48:59;1.23;;;0.63;;
22916;SDS011;11624;53.250;7.456;2024-02-14T07:51:28;0.10;;;0.10;;
22916;SDS011;11624;53.250;7.456;2024-02-14T07:54:03;0.17;;;0.15;;
22916;SDS011;11624;53.250;7.456;2024-02-14T07:56:32;0.10;;;0.10;;
22916;SDS011;11624;53.250;7.456;2024-02-14T07:59:00;0.10;;;0.10;;
22916;SDS011;11624;53.250;7.456;2024-02-14T08:01:29;0.15;;;0.15;;
22916;SDS011;11624;53.250;7.456;2024-02-14T08:04:00;0.20;;;0.20;;
22916;SDS011;11624;53.250;7.456;2024-02-14T08:06:28;0.10;;;0.10;;
22916;SDS011;11624;53.250;7.456;2024-02-14T08:08:57;9.55;;;0.60;;
22916;SDS011;11624;53.250;7.456;2024-02-14T08:11:29;0.32;;;0.32;;
22916;SDS011;11624;53.250;7.456;2024-02-14T08:13:57;0.55;;;0.55;;
22916;SDS011;11624;53.250;7.456;2024-02-14T08:16:26;0.57;;;0.43;;
22916;SDS011;11624;53.250;7.456;2024-02-14T08:18:55;0.10;;;0.10;;
22916;SDS011;11624;53.250;7.456;2024-02-14T08:21:28;0.52;;;0.20;;
22916;SDS011;11624;53.250;7.456;2024-02-14T08:23:58;1.95;;;0.85;;
22916;SDS011;11624;53.250;7.456;2024-02-14T08:26:27;0.75;;;0.55;;
22916;SDS011;11624;53.250;7.456;2024-02-14T08:28:56;0.20;;;0.20;;
22916;SDS011;11624;53.250;7.456;2024-02-14T08:31:31;0.88;;;0.80;;
22916;SDS011;11624;53.250;7.456;2024-02-14T08:34:01;1.85;;;0.63;;
22916;SDS011;11624;53.250;7.456;2024-02-14T08:36:31;0.93;;;0.52;;
22916;SDS011;11624;53.250;7.456;2024-02-14T08:38:59;0.55;;;0.55;;
22916;SDS011;11624;53.250;7.456;2024-02-14T08:41:28;0.70;;;0.65;;
22916;SDS011;11624;53.250;7.456;2024-02-14T08:43:56;1.40;;;1.02;;
22916;SDS011;11624;53.250;7.456;2024-02-14T08:46:25;1.02;;;0.93;;
22916;SDS011;11624;53.250;7.456;2024-02-14T08:48:54;2.33;;;0.65;;
22916;SDS011;11624;53.250;7.456;2024-02-14T08:51:23;0.88;;;0.80;;
22916;SDS011;11624;53.250;7.456;2024-02-14T08:53:53;4.60;;;1.58;;
22916;SDS011;11624;53.250;7.456;2024-02-14T08:56:23;1.42;;;0.85;;
22916;SDS011;11624;53.250;7.456;2024-02-14T08:58:52;1.15;;;0.68;;
22916;SDS011;11624;53.250;7.456;2024-02-14T09:01:20;1.80;;;1.02;;
22916;SDS011;11624;53.250;7.456;2024-02-14T09:03:49;2.90;;;1.50;;
22916;SDS011;11624;53.250;7.456;2024-02-14T09:06:17;1.63;;;0.95;;
22916;SDS011;11624;53.250;7.456;2024-02-14T09:08:46;1.65;;;0.77;;
22916;SDS011;11624;53.250;7.456;2024-02-14T09:11:16;1.55;;;0.95;;
22916;SDS011;11624;53.250;7.456;2024-02-14T09:13:45;2.70;;;0.95;;
22916;SDS011;11624;53.250;7.456;2024-02-14T09:16:15;0.65;;;0.55;;
22916;SDS011;11624;53.250;7.456;2024-02-14T09:18:44;15.68;;;2.28;;
22916;SDS011;11624;53.250;7.456;2024-02-14T09:21:13;1.33;;;0.88;;
22916;SDS011;11624;53.250;7.456;2024-02-14T09:23:46;1.90;;;1.08;;
22916;SDS011;11624;53.250;7.456;2024-02-14T09:26:16;1.45;;;0.57;;
22916;SDS011;11624;53.250;7.456;2024-02-14T09:28:45;9.55;;;1.13;;
22916;SDS011;11624;53.250;7.456;2024-02-14T09:31:17;0.70;;;0.70;;
22916;SDS011;11624;53.250;7.456;2024-02-14T09:33:46;1.33;;;0.65;;
22916;SDS011;11624;53.250;7.456;2024-02-14T09:36:16;0.38;;;0.35;;
22916;SDS011;11624;53.250;7.456;2024-02-14T09:38:46;0.30;;;0.30;;
22916;SDS011;11624;53.250;7.456;2024-02-14T09:41:17;0.28;;;0.28;;
22916;SDS011;11624;53.250;7.456;2024-02-14T09:43:50;1.45;;;0.57;;
22916;SDS011;11624;53.250;7.456;2024-02-14T09:46:18;1.30;;;0.65;;
22916;SDS011;11624;53.250;7.456;2024-02-14T09:48:47;2.00;;;1.23;;
22916;SDS011;11624;53.250;7.456;2024-02-14T09:51:16;0.45;;;0.35;;
22916;SDS011;11624;53.250;7.456;2024-02-14T09:53:45;3.15;;;2.25;;
22916;SDS011;11624;53.250;7.456;2024-02-14T09:56:13;10.15;;;2.00;;
22916;SDS011;11624;53.250;7.456;2024-02-14T09:58:47;0.77;;;0.57;;
22916;SDS011;11624;53.250;7.456;2024-02-14T10:01:23;1.17;;;0.98;;
22916;SDS011;11624;53.250;7.456;2024-02-14T10:03:52;0.35;;;0.35;;
22916;SDS011;11624;53.250;7.456;2024-02-14T10:06:22;1.45;;;0.88;;
22916;SDS011;11624;53.250;7.456;2024-02-14T10:08:52;0.50;;;0.50;;
22916;SDS011;11624;53.250;7.456;2024-02-14T10:11:30;3.50;;;1.05;;
22916;SDS011;11624;53.250;7.456;2024-02-14T10:14:01;2.60;;;0.95;;
22916;SDS011;11624;53.250;7.456;2024-02-14T10:16:31;0.08;;;0.08;;
22916;SDS011;11624;53.250;7.456;2024-02-14T10:19:00;1.17;;;0.73;;
22916;SDS011;11624;53.250;7.456;2024-02-14T10:21:29;0.60;;;0.38;;
22916;SDS011;11624;53.250;7.456;2024-02-14T10:24:00;1.40;;;0.77;;
22916;SDS011;11624;53.250;7.456;2024-02-14T10:26:29;0.30;;;0.30;;
22916;SDS011;11624;53.250;7.456;2024-02-14T10:28:59;2.45;;;0.68;;
22916;SDS011;11624;53.250;7.456;2024-02-14T10:31:29;0.73;;;0.47;;
22916;SDS011;11624;53.250;7.456;2024-02-14T10:33:57;0.20;;;0.20;;
22916;SDS011;11624;53.250;7.456;2024-02-14T10:36:28;3.53;;;1.27;;
22916;SDS011;11624;53.250;7.456;2024-02-14T10:39:01;0.20;;;0.20;;
22916;SDS011;11624;53.250;7.456;2024-02-14T10:41:30;3.22;;;1.45;;
22916;SDS011;11624;53.250;7.456;2024-02-14T10:44:03;0.55;;;0.40;;
22916;SDS011;11624;53.250;7.456;2024-02-14T10:46:33;0.57;;;0.25;;
22916;SDS011;11624;53.250;7.456;2024-02-14T10:49:04;0.75;;;0.45;;
22916;SDS011;11624;53.250;7.456;2024-02-14T10:51:35;1.35;;;0.73;;
22916;SDS011;11624;53.250;7.456;2024-02-14T10:54:04;0.10;;;0.10;;
22916;SDS011;11624;53.250;7.456;2024-02-14T10:56:37;2.50;;;0.93;;
22916;SDS011;11624;53.250;7.456;2024-02-14T10:59:11;2.83;;;1.00;;
22916;SDS011;11624;53.250;7.456;2024-02-14T11:01:42;0.65;;;0.50;;
22916;SDS011;11624;53.250;7.456;2024-02-14T11:04:11;0.73;;;0.73;;
22916;SDS011;11624;53.250;7.456;2024-02-14T11:06:44;0.25;;;0.25;;
22916;SDS011;11624;53.250;7.456;2024-02-14T11:09:15;2.83;;;1.23;;
22916;SDS011;11624;53.250;7.456;2024-02-14T11:11:44;4.80;;;1.52;;
22916;SDS011;11624;53.250;7.456;2024-02-14T11:14:16;1.42;;;0.90;;
22916;SDS011;11624;53.250;7.456;2024-02-14T11:16:46;0.63;;;0.43;;
22916;SDS011;11624;53.250;7.456;2024-02-14T11:19:15;0.85;;;0.75;;
22916;SDS011;11624;53.250;7.456;2024-02-14T11:21:44;0.50;;;0.50;;
22916;SDS011;11624;53.250;7.456;2024-02-14T11:24:15;2.72;;;1.00;;
22916;SDS011;11624;53.250;7.456;2024-02-14T11:26:48;1.58;;;1.25;;
22916;SDS011;11624;53.250;7.456;2024-02-14T11:29:20;2.35;;;0.85;;
22916;SDS011;11624;53.250;7.456;2024-02-14T11:31:57;2.25;;;0.98;;
22916;SDS011;11624;53.250;7.456;2024-02-14T11:34:27;1.52;;;0.88;;
22916;SDS011;11624;53.250;7.456;2024-02-14T11:37:03;0.52;;;0.50;;
22916;SDS011;11624;53.250;7.456;2024-02-14T11:39:33;0.32;;;0.32;;
22916;SDS011;11624;53.250;7.456;2024-02-14T11:42:01;1.65;;;0.90;;
22916;SDS011;11624;53.250;7.456;2024-02-14T11:44:31;0.73;;;0.50;;
22916;SDS011;11624;53.250;7.456;2024-02-14T11:47:00;0.80;;;0.40;;
22916;SDS011;11624;53.250;7.456;2024-02-14T11:49:29;3.50;;;0.90;;
22916;SDS011;11624;53.250;7.456;2024-02-14T11:51:58;0.30;;;0.28;;
22916;SDS011;11624;53.250;7.456;2024-02-14T11:54:26;0.93;;;0.32;;
22916;SDS011;11624;53.250;7.456;2024-02-14T11:56:54;1.77;;;1.08;;
22916;SDS011;11624;53.250;7.456;2024-02-14T11:59:23;0.95;;;0.60;;
22916;SDS011;11624;53.250;7.456;2024-02-14T12:01:53;0.20;;;0.20;;
22916;SDS011;11624;53.250;7.456;2024-02-14T12:04:24;0.85;;;0.63;;
22916;SDS011;11624;53.250;7.456;2024-02-14T12:06:53;0.35;;;0.35;;
22916;SDS011;11624;53.250;7.456;2024-02-14T12:09:22;0.47;;;0.47;;
22916;SDS011;11624;53.250;7.456;2024-02-14T12:11:53;1.13;;;0.80;;
22916;SDS011;11624;53.250;7.456;2024-02-14T12:14:21;0.50;;;0.40;;
22916;SDS011;11624;53.250;7.456;2024-02-14T12:16:56;0.52;;;0.50;;
22916;SDS011;11624;53.250;7.456;2024-02-14T12:19:27;0.40;;;0.40;;
22916;SDS011;11624;53.250;7.456;2024-02-14T12:21:59;0.63;;;0.60;;
22916;SDS011;11624;53.250;7.456;2024-02-14T12:24:29;0.30;;;0.30;;
22916;SDS011;11624;53.250;7.456;2024-02-14T12:26:57;0.47;;;0.47;;
22916;SDS011;11624;53.250;7.456;2024-02-14T12:29:26;0.50;;;0.50;;
22916;SDS011;11624;53.250;7.456;2024-02-14T12:32:04;0.73;;;0.30;;
22916;SDS011;11624;53.250;7.456;2024-02-14T12:34:33;0.20;;;0.20;;
22916;SDS011;11624;53.250;7.456;2024-02-14T12:37:02;0.25;;;0.25;;
22916;SDS011;11624;53.250;7.456;2024-02-14T12:39:32;1.10;;;0.45;;
22916;SDS011;11624;53.250;7.456;2024-02-14T12:42:00;2.55;;;1.13;;
22916;SDS011;11624;53.250;7.456;2024-02-14T12:44:29;0.47;;;0.47;;
22916;SDS011;11624;53.250;7.456;2024-02-14T12:46:58;0.63;;;0.43;;
22916;SDS011;11624;53.250;7.456;2024-02-14T12:49:28;0.63;;;0.63;;
22916;SDS011;11624;53.250;7.456;2024-02-14T12:51:58;5.35;;;1.52;;
22916;SDS011;11624;53.250;7.456;2024-02-14T12:54:27;0.75;;;0.75;;
22916;SDS011;11624;53.250;7.456;2024-02-14T12:56:55;1.30;;;1.05;;
22916;SDS011;11624;53.250;7.456;2024-02-14T12:59:24;2.53;;;1.50;;
22916;SDS011;11624;53.250;7.456;2024-02-14T13:01:53;2.28;;;1.35;;
22916;SDS011;11624;53.250;7.456;2024-02-14T13:04:22;4.97;;;1.35;;
22916;SDS011;11624;53.250;7.456;2024-02-14T13:06:52;4.43;;;1.35;;
22916;SDS011;11624;53.250;7.456;2024-02-14T13:09:21;0.63;;;0.55;;
22916;SDS011;11624;53.250;7.456;2024-02-14T13:11:49;0.95;;;0.88;;
22916;SDS011;11624;53.250;7.456;2024-02-14T13:14:19;0.57;;;0.57;;
22916;SDS011;11624;53.250;7.456;2024-02-14T13:16:47;0.55;;;0.52;;
22916;SDS011;11624;53.250;7.456;2024-02-14T13:19:16;1.10;;;0.70;;
22916;SDS011;11624;53.250;7.456;2024-02-14T13:21:45;0.43;;;0.43;;
22916;SDS011;11624;53.250;7.456;2024-02-14T13:24:16;2.13;;;1.08;;
22916;SDS011;11624;53.250;7.456;2024-02-14T13:26:45;2.83;;;1.60;;
22916;SDS011;11624;53.250;7.456;2024-02-14T13:29:14;1.85;;;0.80;;
22916;SDS011;11624;53.250;7.456;2024-02-14T13:31:44;0.50;;;0.50;;
22916;SDS011;11624;53.250;7.456;2024-02-14T13:34:13;0.63;;;0.57;;
22916;SDS011;11624;53.250;7.456;2024-02-14T13:36:42;2.63;;;1.27;;
22916;SDS011;11624;53.250;7.456;2024-02-14T13:39:10;0.68;;;0.68;;
22916;SDS011;11624;53.250;7.456;2024-02-14T13:41:41;0.40;;;0.40;;
22916;SDS011;11624;53.250;7.456;2024-02-14T13:44:11;0.95;;;0.90;;
22916;SDS011;11624;53.250;7.456;2024-02-14T13:46:40;1.65;;;1.27;;
22916;SDS011;11624;53.250;7.456;2024-02-14T13:49:12;0.77;;;0.77;;
22916;SDS011;11624;53.250;7.456;2024-02-14T13:51:45;0.45;;;0.45;;
22916;SDS011;11624;53.250;7.456;2024-02-14T13:54:13;0.82;;;0.60;;
22916;SDS011;11624;53.250;7.456;2024-02-14T13:56:44;0.57;;;0.57;;
22916;SDS011;11624;53.250;7.456;2024-02-14T13:59:12;1.05;;;0.77;;
22916;SDS011;11624;53.250;7.456;2024-02-14T14:01:41;1.55;;;0.95;;
22916;SDS011;11624;53.250;7.456;2024-02-14T14:04:09;0.30;;;0.30;;
22916;SDS011;11624;53.250;7.456;2024-02-14T14:06:39;2.65;;;1.25;;
22916;SDS011;11624;53.250;7.456;2024-02-14T14:09:08;0.30;;;0.30;;
22916;SDS011;11624;53.250;7.456;2024-02-14T14:11:37;0.40;;;0.28;;
22916;SDS011;11624;53.250;7.456;2024-02-14T14:14:07;0.90;;;0.43;;
22916;SDS011;11624;53.250;7.456;2024-02-14T14:16:42;0.55;;;0.55;;
22916;SDS011;11624;53.250;7.456;2024-02-14T14:19:11;1.00;;;0.65;;
22916;SDS011;11624;53.250;7.456;2024-02-14T14:21:40;1.42;;;0.88;;
22916;SDS011;11624;53.250;7.456;2024-02-14T14:24:09;0.47;;;0.45;;
22916;SDS011;11624;53.250;7.456;2024-02-14T14:26:37;2.83;;;1.02;;
22916;SDS011;11624;53.250;7.456;2024-02-14T14:29:08;0.32;;;0.32;;
22916;SDS011;11624;53.250;7.456;2024-02-14T14:31:37;0.93;;;0.85;;
22916;SDS011;11624;53.250;7.456;2024-02-14T14:34:05;1.48;;;0.60;;
22916;SDS011;11624;53.250;7.456;2024-02-14T14:36:34;4.60;;;1.63;;
22916;SDS011;11624;53.250;7.456;2024-02-14T14:39:07;1.65;;;0.80;;
22916;SDS011;11624;53.250;7.456;2024-02-14T14:41:38;1.27;;;1.00;;
22916;SDS011;11624;53.250;7.456;2024-02-14T14:44:08;1.42;;;1.05;;
22916;SDS011;11624;53.250;7.456;2024-02-14T14:46:38;1.50;;;1.08;;
22916;SDS011;11624;53.250;7.456;2024-02-14T14:49:08;1.10;;;0.40;;
22916;SDS011;11624;53.250;7.456;2024-02-14T14:51:37;4.22;;;1.17;;
22916;SDS011;11624;53.250;7.456;2024-02-14T14:54:06;2.08;;;0.85;;
22916;SDS011;11624;53.250;7.456;2024-02-14T14:56:34;0.57;;;0.50;;
22916;SDS011;11624;53.250;7.456;2024-02-14T14:59:03;1.60;;;0.70;;